Terminal Aerodrome Forecast
Issued by NWS Wilmington, OH

Current Version | Previous Version | Graphics & Text | Print | Product List | Glossary On
Versions: 1 2 3 4 5 6 7 8 9 10 11 12 13 14 15 16 17 18 19
000
FTUS41 KILN 252040 AAA
TAFCMH
TAF AMD
KCMH 252040Z 2521/2618 06006KT P6SM BKN040
     FM252300 04005KT P6SM FEW250
     FM261100 00000KT 4SM BR FEW250
     FM261300 VRB03KT P6SM FEW250=

USA.gov is the U.S. government's official web portal to all federal, state and local government web resources and services.